createdAt,value
2019-03-28T00:02:18.194Z,11.20
2019-03-28T00:08:18.265Z,7.60
2019-03-28T00:14:18.231Z,8.80
2019-03-28T00:20:18.200Z,9.60
2019-03-28T00:26:29.486Z,11.40
2019-03-28T00:32:18.190Z,33.30
2019-03-28T00:38:18.215Z,20.00
2019-03-28T00:44:18.212Z,30.50
2019-03-28T00:50:18.310Z,26.20
2019-03-28T00:56:18.930Z,18.40
2019-03-28T01:02:18.224Z,18.60
2019-03-28T01:08:19.322Z,14.40
2019-03-28T01:14:18.209Z,14.60
2019-03-28T01:20:18.208Z,9.60
2019-03-28T01:26:18.387Z,9.50
2019-03-28T01:32:18.222Z,9.70
2019-03-28T01:38:18.235Z,10.90
2019-03-28T01:44:18.236Z,10.90
2019-03-28T01:50:18.284Z,10.50
2019-03-28T01:56:18.243Z,10.70
2019-03-28T02:02:18.237Z,12.00
2019-03-28T02:08:18.271Z,10.80
2019-03-28T02:14:18.240Z,11.00
2019-03-28T02:20:18.233Z,11.50
2019-03-28T02:26:18.222Z,11.10
2019-03-28T02:32:18.264Z,11.20
2019-03-28T02:38:18.282Z,11.30
2019-03-28T02:44:18.276Z,11.50
2019-03-28T02:50:19.345Z,11.70
2019-03-28T02:56:18.266Z,11.50
2019-03-28T03:02:18.236Z,15.10
2019-03-28T03:08:18.284Z,13.00
2019-03-28T03:14:19.762Z,11.40
2019-03-28T03:20:18.295Z,11.80
2019-03-28T03:26:18.349Z,12.00
2019-03-28T03:32:18.271Z,11.70
2019-03-28T03:38:18.269Z,12.60
2019-03-28T03:44:18.959Z,12.00
2019-03-28T03:50:18.268Z,11.80
2019-03-28T03:56:18.317Z,11.40
2019-03-28T04:02:18.258Z,10.90
2019-03-28T04:08:18.290Z,10.80
2019-03-28T04:14:18.286Z,13.80
2019-03-28T04:20:18.276Z,11.40
2019-03-28T04:26:18.301Z,11.50
2019-03-28T04:32:18.300Z,12.00
2019-03-28T04:38:18.264Z,10.90
2019-03-28T04:44:18.311Z,11.10
2019-03-28T04:50:18.288Z,11.60
2019-03-28T04:56:18.281Z,11.10
2019-03-28T05:02:18.281Z,12.30
2019-03-28T05:08:18.298Z,11.00
2019-03-28T05:14:18.309Z,15.30
2019-03-28T05:20:18.318Z,21.20
2019-03-28T05:26:18.317Z,12.00
2019-03-28T05:32:18.302Z,12.20
2019-03-28T05:38:18.331Z,13.20
2019-03-28T05:44:18.289Z,13.60
2019-03-28T05:50:18.301Z,11.20
2019-03-28T05:56:19.984Z,13.10
2019-03-28T06:02:18.303Z,22.10
2019-03-28T06:08:18.321Z,13.00
2019-03-28T06:14:18.336Z,12.50
2019-03-28T06:20:18.299Z,12.60
2019-03-28T06:26:18.321Z,12.60
2019-03-28T06:32:18.331Z,50.30
2019-03-28T06:38:18.330Z,12.40
2019-03-28T06:44:18.398Z,12.80
2019-03-28T06:50:18.336Z,13.40
2019-03-28T06:56:18.305Z,13.20
2019-03-28T07:02:21.798Z,12.70
2019-03-28T07:08:18.332Z,12.00
2019-03-28T07:14:18.371Z,12.00
2019-03-28T07:20:18.320Z,11.30
2019-03-28T07:26:20.249Z,11.60
2019-03-28T07:32:18.339Z,11.20
2019-03-28T07:38:18.330Z,10.80
2019-03-28T07:44:18.350Z,10.00
2019-03-28T07:50:18.326Z,10.20
2019-03-28T07:56:18.321Z,10.10
2019-03-28T08:02:18.332Z,9.30
2019-03-28T08:08:18.364Z,9.20
2019-03-28T08:14:18.385Z,9.10
2019-03-28T08:20:18.380Z,9.30
2019-03-28T08:26:18.343Z,8.90
2019-03-28T08:32:18.372Z,10.00
2019-03-28T08:38:18.574Z,8.80
2019-03-28T08:44:18.556Z,8.90
2019-03-28T08:50:18.359Z,9.80
2019-03-28T08:56:18.396Z,9.80
2019-03-28T09:02:18.401Z,10.50
2019-03-28T09:08:18.388Z,11.60
2019-03-28T09:14:18.364Z,11.00
2019-03-28T09:20:18.380Z,12.40
2019-03-28T09:26:18.372Z,14.00
2019-03-28T09:32:18.409Z,15.00
2019-03-28T09:38:18.393Z,12.90
2019-03-28T09:44:18.452Z,11.30
2019-03-28T09:50:18.453Z,9.50
2019-03-28T09:56:18.479Z,9.60
2019-03-28T10:02:18.442Z,8.70
2019-03-28T10:08:18.417Z,7.80
2019-03-28T10:14:18.485Z,9.10
2019-03-28T10:20:18.404Z,8.00
2019-03-28T10:26:18.448Z,8.80
2019-03-28T10:32:18.459Z,6.80
2019-03-28T10:38:18.413Z,7.40
2019-03-28T10:44:18.484Z,7.10
2019-03-28T10:50:18.464Z,6.70
2019-03-28T10:56:21.963Z,6.70
2019-03-28T11:02:18.496Z,7.10
2019-03-28T11:08:18.458Z,6.80
2019-03-28T11:14:18.503Z,7.90
2019-03-28T11:20:18.514Z,8.40
2019-03-28T11:26:18.528Z,8.20
2019-03-28T11:32:18.757Z,7.20
2019-03-28T11:38:18.508Z,7.50
2019-03-28T11:44:19.130Z,7.10
2019-03-28T11:50:18.564Z,6.10
2019-03-28T11:56:18.512Z,6.30
2019-03-28T12:02:20.164Z,6.40
2019-03-28T12:08:18.505Z,8.20
2019-03-28T12:14:18.537Z,7.50
2019-03-28T12:20:18.533Z,7.20
2019-03-28T12:26:18.553Z,7.00
2019-03-28T12:32:18.546Z,7.60
2019-03-28T12:38:18.621Z,7.00
2019-03-28T12:44:18.548Z,6.90
2019-03-28T12:50:18.571Z,7.10
2019-03-28T12:56:18.586Z,7.30
2019-03-28T13:02:29.839Z,7.30
2019-03-28T13:08:18.586Z,6.90
2019-03-28T13:14:18.620Z,6.80
2019-03-28T13:20:21.954Z,6.50
2019-03-28T13:26:18.583Z,5.80
2019-03-28T13:32:18.597Z,5.80
2019-03-28T13:38:18.585Z,6.00
2019-03-28T13:44:18.611Z,5.60
2019-03-28T13:50:18.639Z,5.10
2019-03-28T13:56:18.613Z,5.50
2019-03-28T14:02:18.601Z,5.50
2019-03-28T14:08:18.636Z,7.30
2019-03-28T14:14:18.636Z,5.80
2019-03-28T14:20:18.653Z,5.70
2019-03-28T14:26:18.622Z,3.90
2019-03-28T14:32:18.639Z,5.40
2019-03-28T14:38:18.682Z,3.90
2019-03-28T14:44:18.641Z,2.90
2019-03-28T14:50:18.789Z,3.30
2019-03-28T14:56:19.714Z,3.60
2019-03-28T15:02:18.651Z,4.10
2019-03-28T15:08:18.666Z,4.00
2019-03-28T15:14:18.658Z,4.50
2019-03-28T15:20:18.701Z,5.20
2019-03-28T15:26:18.736Z,4.40
2019-03-28T15:32:18.666Z,5.20
2019-03-28T15:38:18.659Z,5.50
2019-03-28T15:44:18.675Z,4.70
2019-03-28T15:50:19.699Z,4.80
2019-03-28T15:56:18.686Z,4.70
2019-03-28T16:02:18.748Z,4.60
2019-03-28T16:08:18.717Z,3.60
2019-03-28T16:14:18.849Z,4.00
2019-03-28T16:20:18.703Z,4.10
2019-03-28T16:26:18.731Z,3.90
2019-03-28T16:32:18.737Z,4.00
2019-03-28T16:38:19.498Z,3.40
2019-03-28T16:44:18.751Z,2.90
2019-03-28T16:50:18.714Z,2.90
2019-03-28T16:56:18.734Z,3.10
2019-03-28T17:02:18.783Z,2.60
2019-03-28T17:08:18.735Z,2.90
2019-03-28T17:14:18.761Z,2.10
2019-03-28T17:20:18.800Z,1.80
2019-03-28T17:26:18.829Z,1.90
2019-03-28T17:32:18.755Z,1.70
2019-03-28T17:38:18.766Z,1.70
2019-03-28T17:44:18.896Z,2.00
2019-03-28T17:50:18.762Z,1.70
2019-03-28T17:56:18.858Z,2.30
2019-03-28T18:02:18.868Z,1.80
2019-03-28T18:08:19.770Z,3.00
2019-03-28T18:14:18.813Z,2.30
2019-03-28T18:20:18.796Z,3.10
2019-03-28T18:26:18.781Z,4.40
2019-03-28T18:32:19.050Z,3.20
2019-03-28T18:38:18.883Z,3.00
2019-03-28T18:44:18.805Z,3.60
2019-03-28T18:50:18.923Z,4.40
2019-03-28T18:56:18.796Z,19.60
2019-03-28T19:02:18.834Z,4.00
2019-03-28T19:08:18.840Z,3.80
2019-03-28T19:14:18.815Z,3.00
2019-03-28T19:20:18.848Z,2.90
2019-03-28T19:26:18.843Z,2.60
2019-03-28T19:32:18.896Z,2.70
2019-03-28T19:38:18.841Z,3.10
2019-03-28T19:44:18.887Z,3.40
2019-03-28T19:50:18.861Z,3.40
2019-03-28T19:56:18.871Z,4.40
2019-03-28T20:02:18.819Z,3.70
2019-03-28T20:08:18.871Z,4.40
2019-03-28T20:14:18.903Z,4.10
2019-03-28T20:20:18.827Z,4.50
2019-03-28T20:26:19.941Z,4.60
2019-03-28T20:32:18.885Z,4.60
2019-03-28T20:38:18.842Z,4.70
2019-03-28T20:44:19.016Z,5.30
2019-03-28T20:50:18.865Z,4.60
2019-03-28T20:56:18.886Z,5.30
2019-03-28T21:02:18.889Z,4.80
2019-03-28T21:08:18.912Z,5.20
2019-03-28T21:14:18.979Z,5.20
2019-03-28T21:20:21.476Z,5.60
2019-03-28T21:26:20.979Z,4.80
2019-03-28T21:32:20.191Z,4.60
2019-03-28T21:38:18.939Z,8.30
2019-03-28T21:44:19.029Z,6.50
2019-03-28T21:50:18.933Z,7.00
2019-03-28T21:56:18.916Z,8.60
2019-03-28T22:02:18.994Z,7.20
2019-03-28T22:08:18.948Z,8.80
2019-03-28T22:14:18.957Z,12.40
2019-03-28T22:20:19.007Z,11.90
2019-03-28T22:26:19.089Z,8.60
2019-03-28T22:32:18.988Z,6.90
2019-03-28T22:38:19.013Z,6.30
2019-03-28T22:44:18.940Z,6.30
2019-03-28T22:50:18.952Z,6.50
2019-03-28T22:56:19.068Z,6.40
2019-03-28T23:02:18.970Z,6.00
2019-03-28T23:08:18.982Z,6.70
2019-03-28T23:14:18.997Z,9.60
2019-03-28T23:20:18.963Z,9.00
2019-03-28T23:26:18.980Z,10.40
2019-03-28T23:32:19.006Z,16.20
2019-03-28T23:38:19.871Z,9.60
2019-03-28T23:44:18.978Z,15.20
2019-03-28T23:50:19.023Z,8.80
2019-03-28T23:56:19.981Z,7.80
